Aéroport de Guadeloupe - Pôle Caraïbes, Guadeloupe

07:28 AST le 31 juillet 2014 (GMT -0400)
Le Raizet (TFFR) Alt. 26 ft | 16.27 °N, 61.53 °W | Change Station

Current weather conditions updated 24 minutes ago

Mostly Cloudy
Nuageux
79 ° F
Paraît 79 ° F
N
4
Vent Variable Vent de Est

Aujourd’hui il est prévu de faire pratiquement la même température qu’hier. Averses au cours de l'après-midi..

Aujourd'hui
Haut(e) -- | Bas -- ° F
--% Risque de précip.
Hier
Haut(e) -- | Bas -- ° F
Precip. -- pouce
5:46 AM 6:38 PM
Lune montante, 18% visible
Pression 30.01 pouce
Visibilité 6.2 Miles terrestres
Nuages Peu 2000 ft
Nuageux 26000 ft
Point de rosée 72 ° F
Humidité 78%
Précipitations 0.00 pouce
Profondeur de la couche neigeuse Non disponible.
UV 1 sur 12
Pollen Non disponible.
Qualité de l'air Non disponible.
Flu Activity Non disponible.
METAR TFFR 311104Z 10003KT 9999 FEW020 BKN260 26/22 Q1016 NOSIG

More Conditions Fewer Conditions

Pression 30.01 pouce
Visibilité 6.2 Miles terrestres
Nuages Peu 2000 ft
Nuageux 26000 ft
Point de rosée 72 ° F
Humidité 78%
Précipitations 0.00 pouce
Profondeur de la couche neigeuse Non disponible.
UV 1 sur 12
Pollen Non disponible.
Qualité de l'air Non disponible.
Flu Activity Non disponible.
METAR TFFR 311104Z 10003KT 9999 FEW020 BKN260 26/22 Q1016 NOSIG

More Conditions Fewer Conditions

10-Day Weather Forecast

Almanac

Astronomie

Jul. 31, 2014 Lever Coucher
Temps réel 05:46 AST 18:38 AST
Crépuscule civil 05:23 AST 19:00 AST
Crépuscule nautique 04:56 AST 19:27 AST
Crépuscule astronomique 04:29 AST 19:55 AST
Lune 09:23 AST 21:38 AST
Durée de lumière visible 13h 37m
Longueur du jour
12h 51m
Tomorrow will be 0m 40s shorter.
Lune montante, 18% of the Moon is Illuminated
Aujourd'hui
Lune montante
août 3
Premier quartier
août 10
Pleine lune
août 17
Dernier quartier
août 25
Nouveau

Les extrêmes de température d’hier

Country Highs Country Lows

Community

WunderPhotos

Upload Photos

1,739,296 Photos téléchargées !

WunderBlogs® & News

Nearby

Qualité de l'air

Not available.

Épaisseur de neige

Not available.

Activité sismique

Ville Distance Mag. Time & Date
No recent earthquake activity has been reported nearby.
Minimum magnitude displayed is 2.5.

Températures des eaux côtières

Lieu Température
Aucun rapport de station

Stations météo à proximité

Emplacement de la station Température indice de chaleur Point de rosée Humidité Vent Precip. Alt. Mise à jour Type
FWI, Sainte Rose 80.4 ° F 88 ° F 80 ° F 99% SE  à  4.5 mph 0.00 pouce / hr 164 ft 6:44 AM AST Rapid Fire (temps réel)

Show More Stations Show Fewer Stations